Time;durP1;ratioP1;P1;durP2;ratioP2;P2;SDS_P1;SDS_P2;PMS_P1;PMS_P2;Temp;Humidity;BMP_temperature;BMP_pressure;BME280_temperature;BME280_humidity;BME280_pressure;Samples;Min_cycle;Max_cycle;Signal;HPM_P1;HPM_P2
2022/06/17 00:01:15;;;;;;;10.13;4.93;;;15.10;99.90;;;;;;5043302;28;20801;-53
2022/06/17 00:03:41;;;;;;;6.77;5.20;;;15.00;99.90;;;;;;5032541;28;20191;-54
2022/06/17 00:06:10;;;;;;;6.83;5.90;;;15.00;99.90;;;;;;5034737;28;20206;-53
2022/06/17 00:08:45;;;;;;;8.13;5.20;;;15.00;99.90;;;;;;5038993;28;20182;-54
2022/06/17 00:11:17;;;;;;;5.10;4.60;;;14.80;99.90;;;;;;5028707;28;20780;-53
2022/06/17 00:13:43;;;;;;;7.27;5.30;;;14.80;99.90;;;;;;5044010;28;20480;-54
2022/06/17 00:16:12;;;;;;;7.60;5.27;;;14.90;99.90;;;;;;5034018;28;21027;-53
2022/06/17 00:18:38;;;;;;;8.80;5.13;;;14.90;99.90;;;;;;5035106;28;20194;-54
2022/06/17 00:21:04;;;;;;;6.17;5.00;;;14.90;99.90;;;;;;5026089;28;20438;-54
2022/06/17 00:23:29;;;;;;;7.33;5.57;;;14.80;99.90;;;;;;5036991;28;20437;-53
2022/06/17 00:25:55;;;;;;;9.00;5.97;;;14.80;99.90;;;;;;5034484;28;20195;-53
2022/06/17 00:28:23;;;;;;;14.50;6.67;;;14.70;99.90;;;;;;5030896;28;20681;-54
2022/06/17 00:30:50;;;;;;;7.00;5.00;;;14.50;99.90;;;;;;5019731;28;20190;-54
2022/06/17 00:33:18;;;;;;;7.53;4.73;;;14.50;99.90;;;;;;5023482;28;20431;-54
2022/06/17 00:35:55;;;;;;;8.10;4.83;;;14.50;99.90;;;;;;5032933;28;20464;-53
2022/06/17 00:38:23;;;;;;;7.10;4.50;;;14.60;99.90;;;;;;5027507;28;20436;-53
2022/06/17 00:40:51;;;;;;;6.27;4.57;;;14.70;99.90;;;;;;5031414;28;20514;-53
2022/06/17 00:43:34;;;;;;;7.33;4.83;;;14.70;99.90;;;;;;5032342;28;20471;-53
2022/06/17 00:46:27;;;;;;;5.23;4.53;;;14.70;99.90;;;;;;5030607;28;20507;-54
2022/06/17 00:49:10;;;;;;;12.93;5.13;;;14.70;99.90;;;;;;5030789;28;20434;-54
2022/06/17 00:51:44;;;;;;;9.77;6.07;;;14.60;99.90;;;;;;5033409;28;20476;-53
2022/06/17 00:54:24;;;;;;;13.90;5.33;;;14.40;99.90;;;;;;5026354;28;20457;-54
2022/06/17 00:56:50;;;;;;;11.20;5.17;;;14.30;99.90;;;;;;5027520;28;21071;-54
2022/06/17 00:59:16;;;;;;;11.97;5.50;;;14.30;99.90;;;;;;5031995;28;20451;-54
2022/06/17 01:01:46;;;;;;;15.97;5.50;;;14.40;99.90;;;;;;5040389;28;20255;-54
2022/06/17 01:04:16;;;;;;;8.87;4.50;;;14.40;99.90;;;;;;5030404;28;20437;-53
2022/06/17 01:06:47;;;;;;;8.97;5.47;;;14.50;99.90;;;;;;5028482;28;20463;-54
2022/06/17 01:12:13;;;;;;;6.43;5.20;;;14.60;99.90;;;;;;5032061;28;20460;-53
2022/06/17 01:14:42;;;;;;;6.97;5.20;;;14.60;99.90;;;;;;5025884;28;20485;-53
2022/06/17 01:17:12;;;;;;;7.80;5.70;;;14.50;99.90;;;;;;5024339;28;20438;-54
2022/06/17 01:19:44;;;;;;;10.10;5.63;;;14.50;99.90;;;;;;5028414;28;21269;-54
2022/06/17 01:22:23;;;;;;;5.80;4.90;;;14.30;99.90;;;;;;5038208;28;20494;-54
2022/06/17 01:24:51;;;;;;;11.73;5.67;;;14.20;99.90;;;;;;5034704;28;20437;-55
2022/06/17 01:27:21;;;;;;;8.33;5.07;;;14.20;99.90;;;;;;5028575;28;20437;-53
2022/06/17 01:29:47;;;;;;;10.93;5.90;;;14.40;99.90;;;;;;5029360;28;20436;-54
2022/06/17 01:32:16;;;;;;;8.30;5.10;;;14.40;99.90;;;;;;5024502;28;20493;-54
2022/06/17 01:34:42;;;;;;;8.73;5.40;;;14.30;99.90;;;;;;5026297;28;20438;-54
2022/06/17 01:37:09;;;;;;;10.43;5.30;;;14.30;99.90;;;;;;5027457;28;20445;-53
2022/06/17 01:39:35;;;;;;;13.67;5.63;;;14.40;99.90;;;;;;5030040;28;20185;-53
2022/06/17 01:42:01;;;;;;;12.70;5.70;;;14.40;99.90;;;;;;5039527;28;20433;-54
2022/06/17 01:44:36;;;;;;;10.17;5.47;;;14.40;99.90;;;;;;5026725;28;20436;-54
2022/06/17 01:47:05;;;;;;;8.40;5.30;;;14.40;99.90;;;;;;5027401;28;20526;-53
2022/06/17 01:49:42;;;;;;;8.13;5.40;;;14.30;99.90;;;;;;5032495;28;20437;-53
2022/06/17 01:52:15;;;;;;;8.80;5.40;;;14.30;99.90;;;;;;5041753;28;20903;-54
2022/06/17 01:54:52;;;;;;;9.07;5.50;;;14.30;99.90;;;;;;5033516;28;20452;-54
2022/06/17 01:57:30;;;;;;;13.13;6.13;;;14.40;99.90;;;;;;5034311;28;20505;-54
2022/06/17 02:00:00;;;;;;;9.90;5.83;;;14.30;99.90;;;;;;5028206;28;20429;-54
2022/06/17 02:02:27;;;;;;;11.10;6.60;;;14.20;99.90;;;;;;5028138;28;20442;-53
2022/06/17 02:05:02;;;;;;;16.67;6.67;;;14.10;99.90;;;;;;5019753;28;20465;-57
2022/06/17 02:07:33;;;;;;;8.37;5.37;;;14.20;99.90;;;;;;5029954;28;20434;-54
2022/06/17 02:09:59;;;;;;;14.20;6.50;;;14.20;99.90;;;;;;5025103;28;20504;-53
2022/06/17 02:12:27;;;;;;;9.50;5.70;;;14.30;99.90;;;;;;5035720;28;20429;-54
2022/06/17 02:14:54;;;;;;;10.83;6.87;;;14.30;99.90;;;;;;5029047;28;20540;-54
2022/06/17 02:17:24;;;;;;;12.03;5.80;;;14.30;99.90;;;;;;5032863;28;20946;-54
2022/06/17 02:19:50;;;;;;;8.23;6.53;;;14.20;99.90;;;;;;5028801;28;20434;-54
2022/06/17 02:22:25;;;;;;;11.43;6.20;;;14.20;99.90;;;;;;5028856;28;20437;-54
2022/06/17 02:24:55;;;;;;;8.30;6.83;;;14.10;99.90;;;;;;5022063;28;20669;-53
2022/06/17 02:27:22;;;;;;;10.97;6.97;;;14.00;99.90;;;;;;5030144;28;20443;-54
2022/06/17 02:29:49;;;;;;;8.60;6.87;;;14.00;99.90;;;;;;5026290;28;20429;-55
2022/06/17 02:32:15;;;;;;;7.67;6.27;;;14.00;99.90;;;;;;5025048;28;20442;-54
2022/06/17 02:34:59;;;;;;;11.00;7.40;;;14.00;99.90;;;;;;5024395;28;20453;-54
2022/06/17 02:37:26;;;;;;;8.70;6.27;;;13.80;99.90;;;;;;5031941;28;20339;-53
2022/06/17 02:39:53;;;;;;;14.73;7.70;;;13.70;99.90;;;;;;5028629;28;20453;-54
2022/06/17 02:42:25;;;;;;;8.60;7.33;;;13.80;99.90;;;;;;5035570;28;20787;-53
2022/06/17 02:44:58;;;;;;;16.03;8.83;;;13.80;99.90;;;;;;5026066;28;20814;-54
2022/06/17 02:47:25;;;;;;;8.00;7.20;;;13.80;99.90;;;;;;5024318;28;20482;-53
2022/06/17 02:49:52;;;;;;;7.60;6.63;;;13.60;99.90;;;;;;5020399;28;20441;-54
2022/06/17 02:52:21;;;;;;;10.17;7.40;;;13.60;99.90;;;;;;5033807;28;20441;-54
2022/06/17 02:54:53;;;;;;;13.87;8.53;;;13.80;99.90;;;;;;5023552;28;20452;-54
2022/06/17 02:57:25;;;;;;;11.33;7.37;;;13.70;99.90;;;;;;5026764;28;20438;-53
2022/06/17 03:00:08;;;;;;;13.90;8.93;;;13.70;99.90;;;;;;5028326;28;20443;-54
2022/06/17 03:02:47;;;;;;;12.33;9.47;;;13.50;99.90;;;;;;5031664;28;20444;-54
2022/06/17 03:05:26;;;;;;;14.03;8.67;;;13.30;99.90;;;;;;5022184;28;20461;-54
2022/06/17 03:07:54;;;;;;;13.83;9.40;;;13.20;99.90;;;;;;5029016;28;20437;-54
2022/06/17 03:10:27;;;;;;;19.40;10.53;;;13.00;99.90;;;;;;5042937;28;20444;-53
2022/06/17 03:13:01;;;;;;;17.20;10.40;;;12.80;99.90;;;;;;5033170;28;20500;-53
2022/06/17 03:15:27;;;;;;;25.40;10.43;;;12.70;99.90;;;;;;5032570;28;20576;-54
2022/06/17 03:17:53;;;;;;;15.80;9.87;;;12.60;99.90;;;;;;5034840;28;20445;-54
2022/06/17 03:20:28;;;;;;;11.17;7.87;;;12.70;99.90;;;;;;5028115;28;20758;-54
2022/06/17 03:23:06;;;;;;;11.17;8.70;;;12.80;99.90;;;;;;5027767;28;20441;-53
2022/06/17 03:25:51;;;;;;;13.40;10.57;;;12.90;99.90;;;;;;5033355;28;20437;-54
2022/06/17 03:28:25;;;;;;;12.80;9.37;;;12.90;99.90;;;;;;5022387;28;20433;-54
2022/06/17 03:31:35;;;;;;;12.80;9.00;;;13.00;99.90;;;;;;5033030;28;20440;-53
2022/06/17 03:34:03;;;;;;;12.20;9.23;;;13.10;99.90;;;;;;5011300;28;20527;-54
2022/06/17 03:36:52;;;;;;;10.67;8.23;;;13.00;99.90;;;;;;5009438;28;20470;-53
2022/06/17 03:39:29;;;;;;;15.40;10.03;;;13.10;99.90;;;;;;5023826;28;20445;-54
2022/06/17 03:42:15;;;;;;;12.97;10.50;;;13.20;99.90;;;;;;5032488;28;20510;-54
2022/06/17 03:45:05;;;;;;;14.30;10.77;;;13.10;99.90;;;;;;5032373;28;20441;-54
2022/06/17 03:47:39;;;;;;;19.23;10.70;;;13.20;99.90;;;;;;5032451;28;20476;-54
2022/06/17 03:50:11;;;;;;;19.40;10.60;;;13.10;99.90;;;;;;5027541;28;20441;-54
2022/06/17 03:52:58;;;;;;;19.10;10.60;;;13.10;99.90;;;;;;5027967;28;21782;-54
2022/06/17 03:55:24;;;;;;;16.83;10.83;;;13.00;99.90;;;;;;5028802;28;20481;-54
2022/06/17 03:57:52;;;;;;;13.00;11.00;;;13.00;99.90;;;;;;5043829;28;20436;-54
2022/06/17 04:00:34;;;;;;;23.80;11.80;;;13.00;99.90;;;;;;5035922;28;20512;-53
2022/06/17 04:03:03;;;;;;;13.23;10.60;;;13.00;99.90;;;;;;5032041;28;20943;-54
2022/06/17 04:05:29;;;;;;;11.93;9.30;;;13.00;99.90;;;;;;5032843;28;20433;-54
2022/06/17 04:07:55;;;;;;;17.20;11.87;;;13.10;99.90;;;;;;5029045;28;20437;-54
2022/06/17 04:10:24;;;;;;;13.53;10.90;;;13.20;99.90;;;;;;5020470;28;20935;-53
2022/06/17 04:12:52;;;;;;;12.90;10.07;;;13.30;99.90;;;;;;5033481;28;20201;-53
2022/06/17 04:15:50;;;;;;;14.53;8.20;;;13.40;99.90;;;;;;5030740;28;20477;-53
2022/06/17 04:18:15;;;;;;;12.50;9.73;;;13.60;99.90;;;;;;5032070;28;21259;-54
2022/06/17 04:20:51;;;;;;;14.77;10.67;;;13.80;99.90;;;;;;5035940;28;20469;-54
2022/06/17 04:23:20;;;;;;;12.10;8.83;;;14.00;99.90;;;;;;5027569;28;20196;-53
2022/06/17 04:26:24;;;;;;;12.40;9.93;;;14.10;99.90;;;;;;5031068;28;20443;-53
2022/06/17 04:28:58;;;;;;;15.77;9.60;;;14.20;99.90;;;;;;5030038;28;20499;-53
2022/06/17 04:31:26;;;;;;;15.17;8.80;;;14.10;99.90;;;;;;5037386;28;20929;-53
2022/06/17 04:34:02;;;;;;;24.83;11.13;;;14.20;99.90;;;;;;5038386;28;20468;-53
2022/06/17 04:36:40;;;;;;;18.83;12.33;;;14.30;99.90;;;;;;5038194;28;20567;-53
2022/06/17 04:39:24;;;;;;;17.23;10.60;;;14.30;99.90;;;;;;5031145;28;20464;-53
2022/06/17 04:41:54;;;;;;;12.17;9.53;;;14.50;99.90;;;;;;5021612;28;20429;-54
2022/06/17 04:44:19;;;;;;;17.23;12.70;;;14.60;99.90;;;;;;5030666;28;20446;-53
2022/06/17 04:46:59;;;;;;;17.57;12.27;;;14.70;99.90;;;;;;5033588;28;20854;-53
2022/06/17 04:49:28;;;;;;;20.67;11.57;;;14.70;99.90;;;;;;5028014;28;20194;-54
2022/06/17 04:52:00;;;;;;;19.90;12.93;;;14.70;99.90;;;;;;5027924;28;20442;-54
2022/06/17 04:54:28;;;;;;;18.50;13.20;;;14.80;99.90;;;;;;5030762;28;20551;-54
2022/06/17 04:56:55;;;;;;;20.13;12.73;;;14.80;99.90;;;;;;5024318;28;20465;-54
2022/06/17 04:59:44;;;;;;;17.50;11.03;;;14.90;99.90;;;;;;5027825;28;21015;-54
2022/06/17 05:02:26;;;;;;;15.90;12.73;;;15.00;99.90;;;;;;5030952;28;20502;-53
2022/06/17 05:04:55;;;;;;;16.87;11.87;;;15.20;99.90;;;;;;5030065;28;20448;-54
2022/06/17 05:07:21;;;;;;;13.20;10.00;;;15.40;99.90;;;;;;5032493;28;21119;-54
2022/06/17 05:09:52;;;;;;;15.40;11.77;;;15.60;99.90;;;;;;5032826;28;20449;-53
2022/06/17 05:12:31;;;;;;;16.73;11.90;;;15.80;99.90;;;;;;5033369;28;20188;-54
2022/06/17 05:15:15;;;;;;;16.30;10.50;;;15.90;99.90;;;;;;5032117;28;21043;-54
2022/06/17 05:17:41;;;;;;;18.13;11.87;;;16.00;99.90;;;;;;5027319;28;20441;-54
2022/06/17 05:20:12;;;;;;;14.90;11.00;;;16.10;99.90;;;;;;5027704;28;20439;-53
2022/06/17 05:22:41;;;;;;;14.03;10.30;;;16.30;99.90;;;;;;5032838;28;20845;-54
2022/06/17 05:25:14;;;;;;;19.33;10.70;;;16.50;99.90;;;;;;5032591;28;20840;-53
2022/06/17 05:27:40;;;;;;;19.00;10.90;;;16.60;99.90;;;;;;5028230;28;20498;-54
2022/06/17 05:30:06;;;;;;;14.73;10.93;;;16.70;99.90;;;;;;5034930;28;20449;-53
2022/06/17 05:32:32;;;;;;;11.57;8.30;;;16.80;99.90;;;;;;5028223;28;20218;-54
2022/06/17 05:34:57;;;;;;;12.87;9.33;;;16.90;99.90;;;;;;5038569;28;21012;-54
2022/06/17 05:37:23;;;;;;;15.00;10.33;;;17.10;99.90;;;;;;5032348;28;20285;-53
2022/06/17 05:39:48;;;;;;;18.57;9.60;;;17.30;99.90;;;;;;5032526;28;20269;-54
2022/06/17 05:42:14;;;;;;;15.07;9.60;;;17.50;99.90;;;;;;5022092;28;20254;-51
2022/06/17 05:44:40;;;;;;;18.00;9.70;;;17.60;99.90;;;;;;5035985;28;20219;-54
2022/06/17 05:47:06;;;;;;;10.90;7.60;;;17.70;99.90;;;;;;5026408;28;20195;-52
2022/06/17 05:49:32;;;;;;;11.87;8.30;;;17.90;99.90;;;;;;5028313;28;20512;-52
2022/06/17 05:51:58;;;;;;;16.80;8.03;;;18.10;99.90;;;;;;5061842;28;20438;-51
2022/06/17 05:54:24;;;;;;;13.43;6.90;;;18.20;99.90;;;;;;5029456;28;20429;-52
2022/06/17 05:56:50;;;;;;;11.67;7.43;;;18.30;99.90;;;;;;5029501;28;20500;-52
2022/06/17 05:59:17;;;;;;;10.27;7.17;;;18.40;99.90;;;;;;5033775;28;20484;-51
2022/06/17 06:01:43;;;;;;;10.90;7.20;;;18.50;99.90;;;;;;5033954;28;20264;-52
2022/06/17 06:04:09;;;;;;;12.07;7.10;;;18.50;99.90;;;;;;5030709;28;20792;-52
2022/06/17 06:06:34;;;;;;;11.50;6.60;;;18.60;99.90;;;;;;5035943;28;20448;-52
2022/06/17 06:09:00;;;;;;;18.27;7.67;;;18.80;99.90;;;;;;5025038;28;20266;-52
2022/06/17 06:11:25;;;;;;;8.93;6.77;;;19.00;99.90;;;;;;5038491;28;20574;-52
2022/06/17 06:13:51;;;;;;;11.80;5.80;;;19.00;99.90;;;;;;5035550;28;20254;-52
2022/06/17 06:16:17;;;;;;;8.83;5.90;;;19.20;99.90;;;;;;5036935;28;20218;-52
2022/06/17 06:18:45;;;;;;;8.57;6.50;;;19.50;99.90;;;;;;5039946;28;20656;-52
2022/06/17 06:21:11;;;;;;;7.47;5.37;;;19.70;99.90;;;;;;5072360;28;20191;-51
2022/06/17 06:23:42;;;;;;;10.80;6.57;;;19.80;99.90;;;;;;5027280;28;20473;-52
2022/06/17 06:26:12;;;;;;;10.07;6.40;;;20.00;99.90;;;;;;5034518;28;20432;-52
2022/06/17 06:28:38;;;;;;;10.53;5.60;;;20.20;99.90;;;;;;5025851;28;20434;-55
2022/06/17 06:31:10;;;;;;;10.97;5.50;;;20.50;99.90;;;;;;5032810;28;20440;-51
2022/06/17 06:33:36;;;;;;;11.87;5.47;;;20.70;99.90;;;;;;5028758;28;20198;-51
2022/06/17 06:36:01;;;;;;;7.73;5.63;;;20.70;99.90;;;;;;5035699;28;20473;-58
2022/06/17 06:38:27;;;;;;;11.93;6.13;;;20.40;99.90;;;;;;5033845;28;20194;-51
2022/06/17 06:40:53;;;;;;;8.83;5.60;;;20.50;99.90;;;;;;5036786;28;20229;-51
2022/06/17 06:43:20;;;;;;;8.27;5.13;;;20.60;99.90;;;;;;5028993;28;20178;-51
2022/06/17 06:45:50;;;;;;;11.67;5.17;;;20.90;99.90;;;;;;5036856;28;20190;-51
2022/06/17 06:48:18;;;;;;;12.63;5.87;;;20.90;99.90;;;;;;5037260;28;20522;-52
2022/06/17 06:50:44;;;;;;;8.47;5.03;;;21.00;99.90;;;;;;5033209;28;20448;-52
2022/06/17 06:53:11;;;;;;;9.10;5.70;;;21.10;99.90;;;;;;5035239;28;20424;-52
2022/06/17 06:55:37;;;;;;;11.70;5.53;;;21.30;99.90;;;;;;5029803;28;20474;-51
2022/06/17 06:58:11;;;;;;;12.73;5.33;;;21.50;99.90;;;;;;5033742;28;21010;-52
2022/06/17 07:00:42;;;;;;;13.07;5.43;;;21.70;99.90;;;;;;5031218;28;20543;-52
2022/06/17 07:03:08;;;;;;;6.00;4.80;;;21.90;99.90;;;;;;5031526;28;20434;-52
2022/06/17 07:05:40;;;;;;;5.53;4.67;;;22.10;99.90;;;;;;5036541;28;20441;-52
2022/06/17 07:08:09;;;;;;;11.87;5.57;;;22.00;99.90;;;;;;5037913;28;20439;-52
2022/06/17 07:10:36;;;;;;;8.97;5.30;;;22.00;99.90;;;;;;5041966;28;20444;-53
2022/06/17 07:13:03;;;;;;;8.17;5.40;;;21.90;99.90;;;;;;5038248;28;20489;-51
2022/06/17 07:15:29;;;;;;;7.73;5.50;;;21.80;99.90;;;;;;5026193;28;20484;-52
2022/06/17 07:18:03;;;;;;;8.47;5.40;;;21.60;99.90;;;;;;5032553;28;20803;-49
2022/06/17 07:20:38;;;;;;;6.97;4.60;;;21.80;99.90;;;;;;5038084;28;20529;-52
2022/06/17 07:23:34;;;;;;;8.17;5.40;;;22.20;99.90;;;;;;5027478;28;20490;-51
2022/06/17 07:26:06;;;;;;;6.73;4.83;;;22.60;99.90;;;;;;5030964;28;20448;-51
2022/06/17 07:28:32;;;;;;;9.00;5.03;;;22.50;99.90;;;;;;5019969;28;20955;-51
2022/06/17 07:30:58;;;;;;;9.17;5.07;;;22.40;99.90;;;;;;5028765;28;20441;-52
2022/06/17 07:33:26;;;;;;;9.80;5.20;;;22.40;99.90;;;;;;5027635;28;20495;-51
2022/06/17 07:35:55;;;;;;;9.23;5.93;;;22.60;99.90;;;;;;5036671;28;20472;-52
2022/06/17 07:41:14;;;;;;;7.40;5.33;;;22.70;99.90;;;;;;5039880;28;21002;-51
2022/06/17 07:43:40;;;;;;;8.63;6.10;;;22.90;99.90;;;;;;5030735;28;20438;-51
2022/06/17 07:46:07;;;;;;;7.53;5.40;;;23.00;99.90;;;;;;5033767;28;20494;-51
2022/06/17 07:48:32;;;;;;;7.47;4.57;;;23.10;99.90;;;;;;5028542;28;20449;-51
2022/06/17 07:50:58;;;;;;;6.63;5.10;;;23.20;99.90;;;;;;5037710;28;20439;-51
2022/06/17 07:53:29;;;;;;;12.37;5.10;;;23.30;99.90;;;;;;5026856;28;20218;-51
2022/06/17 07:55:56;;;;;;;11.27;4.50;;;23.80;99.90;;;;;;5027981;28;20473;-51
2022/06/17 07:58:22;;;;;;;8.47;5.07;;;24.00;99.90;;;;;;5040438;28;20447;-51
2022/06/17 08:00:48;;;;;;;6.40;4.93;;;24.00;99.90;;;;;;5035514;28;20442;-51
2022/06/17 08:03:16;;;;;;;5.53;4.40;;;24.30;99.90;;;;;;5037428;28;20436;-51
2022/06/17 08:05:47;;;;;;;6.23;4.97;;;24.90;99.90;;;;;;5033131;28;20907;-51
2022/06/17 08:08:21;;;;;;;9.70;4.03;;;25.20;99.90;;;;;;5028387;28;20862;-51
2022/06/17 08:10:48;;;;;;;4.87;3.77;;;25.20;99.90;;;;;;5040210;28;20441;-51
2022/06/17 08:13:13;;;;;;;8.20;4.17;;;25.10;99.90;;;;;;5042069;28;20488;-50
2022/06/17 08:15:39;;;;;;;5.43;4.20;;;25.10;99.90;;;;;;5033704;28;20488;-51
2022/06/17 08:18:05;;;;;;;7.27;4.37;;;24.90;99.90;;;;;;5031174;28;20191;-51
2022/06/17 08:20:34;;;;;;;6.57;4.27;;;24.70;99.90;;;;;;5027434;28;20189;-50
2022/06/17 08:23:02;;;;;;;5.30;4.80;;;24.90;99.90;;;;;;5041937;28;20194;-51
2022/06/17 08:25:29;;;;;;;4.53;4.00;;;25.10;99.90;;;;;;5030161;28;20528;-51
2022/06/17 08:27:56;;;;;;;5.87;4.00;;;25.50;99.90;;;;;;5025371;28;20440;-50
2022/06/17 08:30:25;;;;;;;5.43;3.93;;;26.00;99.90;;;;;;5038674;28;20436;-50
2022/06/17 08:32:53;;;;;;;5.93;3.93;;;26.10;99.90;;;;;;5040437;28;20441;-51
2022/06/17 08:35:25;;;;;;;12.13;4.07;;;26.30;99.90;;;;;;5031999;28;20525;-51
2022/06/17 08:38:07;;;;;;;9.70;4.70;;;26.50;99.90;;;;;;5032456;28;21017;-52
2022/06/17 08:40:46;;;;;;;5.47;4.63;;;26.40;99.90;;;;;;5027646;28;20433;-53
2022/06/17 08:43:33;;;;;;;8.07;4.87;;;25.50;99.90;;;;;;5035146;28;20938;-54
2022/06/17 08:46:46;;;;;;;6.47;3.97;;;25.10;99.90;;;;;;5035974;28;20445;-54
2022/06/17 08:49:24;;;;;;;4.20;3.80;;;24.60;99.90;;;;;;5039922;28;20468;-53
2022/06/17 08:51:56;;;;;;;4.30;3.53;;;24.40;99.90;;;;;;5036192;28;20455;-52
2022/06/17 08:54:43;;;;;;;5.50;4.10;;;24.40;99.90;;;;;;5037212;28;20814;-54
2022/06/17 08:57:23;;;;;;;10.13;4.20;;;24.60;99.90;;;;;;5033881;28;20800;-52
2022/06/17 08:59:55;;;;;;;5.07;3.50;;;24.40;99.90;;;;;;5028207;28;20953;-53
2022/06/17 09:02:29;;;;;;;6.70;4.77;;;24.30;99.90;;;;;;5029998;28;20426;-53
2022/06/17 09:05:21;;;;;;;5.37;4.50;;;24.20;99.90;;;;;;5027428;28;20438;-53
2022/06/17 09:08:43;;;;;;;16.80;4.10;;;24.20;99.90;;;;;;5041938;28;20445;-53
2022/06/17 09:11:15;;;;;;;12.23;5.30;;;24.30;99.90;;;;;;5019411;28;20473;-53
2022/06/17 09:13:41;;;;;;;8.30;5.77;;;24.40;99.90;;;;;;5009662;28;20514;-53
2022/06/17 09:16:12;;;;;;;10.10;5.47;;;24.30;99.90;;;;;;5020091;28;20568;-53
2022/06/17 09:18:42;;;;;;;11.90;6.20;;;24.50;99.90;;;;;;5024946;28;20202;-53
2022/06/17 09:21:20;;;;;;;7.17;6.27;;;24.40;99.90;;;;;;5033137;28;20441;-54
2022/06/17 09:23:46;;;;;;;6.97;5.70;;;24.20;99.90;;;;;;5034266;28;20420;-54
2022/06/17 09:26:40;;;;;;;8.70;6.00;;;24.50;99.90;;;;;;5030574;28;20436;-50
2022/06/17 09:29:29;;;;;;;15.03;5.77;;;25.00;99.90;;;;;;5039544;28;20210;-51
2022/06/17 09:32:06;;;;;;;11.37;6.70;;;25.50;99.90;;;;;;5032249;28;21165;-51
2022/06/17 09:34:52;;;;;;;11.07;5.63;;;25.80;99.90;;;;;;5035366;28;20429;-51
2022/06/17 09:37:36;;;;;;;7.80;5.70;;;26.30;99.90;;;;;;5035636;28;20961;-51
2022/06/17 09:40:08;;;;;;;8.47;6.27;;;26.20;99.90;;;;;;5041245;28;20425;-50
2022/06/17 09:42:40;;;;;;;11.03;6.30;;;26.10;99.90;;;;;;5041779;28;20880;-52
2022/06/17 09:45:35;;;;;;;7.80;5.57;;;25.90;99.90;;;;;;5027466;28;20776;-50
2022/06/17 09:48:16;;;;;;;12.50;5.97;;;25.90;99.90;;;;;;5037021;28;20441;-51
2022/06/17 09:50:48;;;;;;;11.13;5.70;;;26.10;99.90;;;;;;5043281;28;20757;-52
2022/06/17 09:53:35;;;;;;;8.53;5.57;;;26.20;99.90;;;;;;5037625;28;20508;-51
2022/06/17 09:56:32;;;;;;;7.80;5.30;;;26.00;99.90;;;;;;5036207;28;20462;-51
2022/06/17 09:59:17;;;;;;;7.87;5.73;;;25.40;99.90;;;;;;5027962;28;20507;-51
2022/06/17 10:01:44;;;;;;;7.83;5.40;;;25.30;99.90;;;;;;5030996;28;20770;-51
2022/06/17 10:04:12;;;;;;;10.27;6.20;;;25.40;99.90;;;;;;5038130;28;20422;-51
2022/06/17 10:06:50;;;;;;;12.43;6.17;;;25.60;99.90;;;;;;5037825;28;20440;-50
2022/06/17 10:09:36;;;;;;;12.80;5.97;;;25.40;99.90;;;;;;5043301;28;20417;-51
2022/06/17 10:12:19;;;;;;;11.03;6.03;;;25.30;99.90;;;;;;5031489;28;20474;-51
2022/06/17 10:15:19;;;;;;;31.17;7.00;;;25.20;99.90;;;;;;5037770;28;20555;-50
2022/06/17 10:20:41;;;;;;;10.23;5.70;;;25.10;99.90;;;;;;5024906;28;20777;-51
2022/06/17 10:23:25;;;;;;;8.80;5.50;;;25.40;99.90;;;;;;5037715;28;20516;-50
2022/06/17 10:26:08;;;;;;;13.37;7.00;;;25.40;99.90;;;;;;5026454;28;20927;-50
2022/06/17 10:28:53;;;;;;;7.60;5.07;;;25.20;99.90;;;;;;5029282;28;20424;-50
2022/06/17 10:31:31;;;;;;;7.90;5.80;;;25.40;99.90;;;;;;5035005;28;20412;-51
2022/06/17 10:34:01;;;;;;;7.10;5.07;;;25.60;99.90;;;;;;5038367;28;20420;-51
2022/06/17 10:36:28;;;;;;;7.07;5.63;;;25.90;99.90;;;;;;5036283;28;20464;-50
2022/06/17 10:38:53;;;;;;;7.90;5.00;;;26.10;99.90;;;;;;5032356;28;20438;-50
2022/06/17 10:41:19;;;;;;;9.97;5.17;;;26.00;99.90;;;;;;5032641;28;20418;-51
2022/06/17 10:43:52;;;;;;;6.00;4.67;;;26.30;99.90;;;;;;5038865;28;20191;-51
2022/06/17 10:46:24;;;;;;;10.50;5.50;;;26.40;99.90;;;;;;5035123;28;20273;-50
2022/06/17 10:49:05;;;;;;;7.50;4.67;;;26.70;99.90;;;;;;5037706;28;20433;-50
2022/06/17 10:51:34;;;;;;;9.60;5.30;;;26.50;99.90;;;;;;5040197;28;20417;-52
2022/06/17 10:54:04;;;;;;;6.90;5.70;;;26.20;99.90;;;;;;5070650;28;20507;-50
2022/06/17 10:56:39;;;;;;;6.90;5.20;;;25.80;99.90;;;;;;5033695;28;20468;-51
2022/06/17 10:59:09;;;;;;;8.90;5.40;;;25.50;99.90;;;;;;5070572;28;20937;-51
2022/06/17 11:01:50;;;;;;;11.53;5.67;;;25.40;99.90;;;;;;5029001;28;20440;-52
2022/06/17 11:04:18;;;;;;;5.50;4.80;;;25.40;99.90;;;;;;5040824;28;20946;-51
2022/06/17 11:06:59;;;;;;;6.57;4.83;;;25.40;99.90;;;;;;5033567;28;20461;-51
2022/06/17 11:09:46;;;;;;;10.00;4.60;;;25.50;99.90;;;;;;5041042;28;20871;-51
2022/06/17 11:12:24;;;;;;;8.23;5.37;;;25.60;99.90;;;;;;5033522;28;20440;-51
2022/06/17 11:15:03;;;;;;;7.07;4.53;;;25.60;99.90;;;;;;5037877;28;20492;-50
2022/06/17 11:17:48;;;;;;;11.40;4.57;;;25.60;99.90;;;;;;5037801;28;21223;-50
2022/06/17 11:20:24;;;;;;;8.10;4.50;;;25.60;99.90;;;;;;5028509;28;20435;-50
2022/06/17 11:22:55;;;;;;;6.53;4.20;;;25.70;99.90;;;;;;5034264;28;20425;-51
2022/06/17 11:25:30;;;;;;;8.10;4.50;;;26.00;99.90;;;;;;5040270;28;20422;-50
2022/06/17 11:28:11;;;;;;;9.93;5.70;;;26.10;99.90;;;;;;5029138;28;20417;-50
2022/06/17 11:30:48;;;;;;;7.63;4.63;;;26.30;99.90;;;;;;5037971;28;20983;-51
2022/06/17 11:33:32;;;;;;;6.50;4.60;;;26.20;99.90;;;;;;5039314;28;21025;-50
2022/06/17 11:36:01;;;;;;;7.80;5.00;;;26.20;99.90;;;;;;5039026;28;20508;-50
2022/06/17 11:38:29;;;;;;;5.57;5.07;;;26.10;99.90;;;;;;5029992;28;20520;-51
2022/06/17 11:40:55;;;;;;;7.00;5.00;;;26.10;99.90;;;;;;5033597;28;21021;-51
2022/06/17 11:43:38;;;;;;;6.83;5.33;;;26.00;99.90;;;;;;5028171;28;20432;-51
2022/06/17 11:46:20;;;;;;;8.33;5.90;;;25.70;99.90;;;;;;5036450;28;20436;-50
2022/06/17 11:48:52;;;;;;;39.23;27.40;;;25.60;99.90;;;;;;5018303;28;20536;-50
2022/06/17 11:51:28;;;;;;;8.57;5.30;;;25.50;99.90;;;;;;5033133;28;20430;-51
2022/06/17 11:54:01;;;;;;;6.80;5.00;;;25.40;99.90;;;;;;5042144;28;20429;-50
2022/06/17 11:56:27;;;;;;;7.83;5.10;;;25.40;99.90;;;;;;5034930;28;20479;-51
2022/06/17 11:58:56;;;;;;;7.60;4.67;;;25.50;99.90;;;;;;5036344;28;20424;-50
2022/06/17 12:01:22;;;;;;;4.90;3.83;;;25.60;99.90;;;;;;5031291;28;20191;-52
2022/06/17 12:03:47;;;;;;;10.10;4.50;;;25.60;99.90;;;;;;5042609;28;20422;-50
2022/06/17 12:06:42;;;;;;;7.70;5.60;;;25.70;99.90;;;;;;5034989;28;20253;-50
2022/06/17 12:09:26;;;;;;;5.90;4.67;;;26.00;99.90;;;;;;5040163;28;20171;-51
2022/06/17 12:11:56;;;;;;;9.60;4.63;;;26.20;99.90;;;;;;5031723;28;20425;-50
2022/06/17 12:14:51;;;;;;;8.57;4.47;;;26.30;99.90;;;;;;5037993;28;20576;-51
2022/06/17 12:17:18;;;;;;;5.83;5.00;;;26.10;99.90;;;;;;5037289;28;20473;-51
2022/06/17 12:19:44;;;;;;;7.33;3.97;;;25.80;99.90;;;;;;5035604;28;20819;-51
2022/06/17 12:22:31;;;;;;;6.20;4.73;;;25.70;99.90;;;;;;5038305;28;20428;-50
2022/06/17 12:25:16;;;;;;;6.20;4.73;;;25.40;99.90;;;;;;5040709;28;20229;-50
2022/06/17 12:28:09;;;;;;;8.00;5.07;;;25.30;99.90;;;;;;5044211;28;20409;-51
2022/06/17 12:30:40;;;;;;;10.50;5.00;;;24.90;99.90;;;;;;5028675;28;20441;-50
2022/06/17 12:33:14;;;;;;;7.87;4.73;;;24.70;99.90;;;;;;5039551;28;20417;-51
2022/06/17 12:35:45;;;;;;;7.33;4.93;;;24.80;99.90;;;;;;5034407;28;20464;-50
2022/06/17 12:38:16;;;;;;;7.43;5.00;;;24.70;99.90;;;;;;5043474;28;20429;-50
2022/06/17 12:40:46;;;;;;;8.03;4.83;;;24.80;99.90;;;;;;5034152;28;20540;-51
2022/06/17 12:43:38;;;;;;;7.37;5.23;;;24.90;99.90;;;;;;5044089;28;20433;-51
2022/06/17 12:46:26;;;;;;;8.30;5.10;;;25.20;99.90;;;;;;5037615;28;20433;-50
2022/06/17 12:55:22;;;;;;;9.37;4.80;;;26.00;99.90;;;;;;5034597;28;20943;-51
2022/06/17 12:58:15;;;;;;;5.80;5.30;;;25.90;99.90;;;;;;5040575;28;20451;-50
2022/06/17 13:00:58;;;;;;;7.03;3.97;;;25.60;99.90;;;;;;5035001;28;20861;-51
2022/06/17 13:03:30;;;;;;;7.37;5.33;;;25.70;99.90;;;;;;5041183;28;20429;-51
2022/06/17 13:06:05;;;;;;;9.93;5.00;;;25.80;99.90;;;;;;5042633;28;20455;-51
2022/06/17 13:08:53;;;;;;;7.13;3.70;;;25.90;99.90;;;;;;5031964;28;20428;-51
2022/06/17 13:11:39;;;;;;;6.77;4.40;;;26.50;99.90;;;;;;5035689;28;20417;-51
2022/06/17 13:14:26;;;;;;;7.13;4.80;;;27.10;99.90;;;;;;5033524;28;21041;-50
2022/06/17 13:17:07;;;;;;;5.63;4.40;;;27.10;99.90;;;;;;5043345;28;20477;-50
2022/06/17 13:19:43;;;;;;;9.80;5.27;;;27.10;99.90;;;;;;5028559;28;20575;-51
2022/06/17 13:22:21;;;;;;;5.80;5.20;;;27.20;99.90;;;;;;5041061;28;20425;-51
2022/06/17 13:24:56;;;;;;;4.87;4.07;;;27.40;99.90;;;;;;5031345;28;20436;-50
2022/06/17 13:27:55;;;;;;;15.50;4.53;;;27.50;99.90;;;;;;5029227;28;20450;-51